Flight Track Log - Related Links

Times and Time Zones

All times are in EDT time to prevent confusion due to time zone crossing. See the TAM3082 flight status page for this flight to view local times or setup timezone preferences in your user account.


Time Position Orientation Groundspeed Altitude Reporting Facility
EDT Latitude Longitude Course Direction KTS MPH feet Rate Location/Type
Mon 11:56:00 AM -20.1236 -47.8249 163° South  Level Estimated
Mon 11:57:00 AM -20.1966 -47.8011 163° South  Level Estimated
Mon 11:58:00 AM -20.2695 -47.7773 163° South  Level Estimated
Mon 11:59:00 AM -20.3424 -47.7535 163° South  Level Estimated
Mon 12:00:00 PM -20.4154 -47.7297 163° South  Level Estimated
Mon 12:01:00 PM -20.4883 -47.7058 163° South  Level Estimated
Mon 12:02:00 PM -20.5892 -47.6728 163° South  Level Estimated
Mon 12:03:00 PM -20.6901 -47.6397 163° South  Level Estimated
Mon 12:04:00 PM -20.7910 -47.6066 163° South  Level Estimated
Mon 12:05:00 PM -20.8918 -47.5735 163° South  Level Estimated
Mon 12:06:00 PM -20.9927 -47.5402 163° South  Level Estimated
Mon 12:07:00 PM -21.0935 -47.5070 163° South  Level Estimated
Mon 12:08:00 PM -21.1943 -47.4737 163° South  Level Estimated
Mon 12:09:00 PM -21.2952 -47.4404 163° South  Level Estimated
Mon 12:10:00 PM -21.3960 -47.4070 163° South  Level Estimated
Mon 12:11:00 PM -21.4968 -47.3736 163° South  Level Estimated
Mon 12:12:00 PM -21.5976 -47.3401 163° South  Level Estimated
Mon 12:13:00 PM -21.6984 -47.3065 163° South  Level Estimated
Mon 12:14:00 PM -21.7992 -47.2730 163° South  Level Estimated
Mon 12:15:00 PM -21.9000 -47.2393 163° South  Level Estimated
Mon 12:16:00 PM -22.0008 -47.2057 163° South  Level Estimated
Mon 12:17:00 PM -22.1016 -47.1720 163° South  Level Estimated
Mon 12:18:00 PM -22.2023 -47.1382 163° South  Level Estimated
Mon 12:19:00 PM -22.3031 -47.1044 163° South  Level Estimated
Mon 12:20:00 PM -22.4039 -47.0705 163° South  Level Estimated
Mon 12:21:00 PM -22.5046 -47.0366 163° South  Level Estimated
Mon 12:22:00 PM -22.6054 -47.0027 163° South  Level Estimated
Mon 12:23:00 PM -22.7061 -46.9687 163° South  Level Estimated
Mon 12:24:00 PM -22.8068 -46.9346 163° South  Level Estimated
Mon 12:25:00 PM -22.9075 -46.9005 163° South  Level Estimated
Mon 12:26:00 PM -23.0082 -46.8663 163° South  Level Estimated
Mon 12:27:00 PM -23.1089 -46.8321 163° South  Level Estimated

Login

Don't have an account? Register now (free) for customized features, flight alerts, and more!